sensor_id;sensor_type;location;lat;lon;timestamp;pressure;altitude;pressure_sealevel;temperature;humidity
41886;BME280;27567;43.084;25.616;2023-05-23T00:00:55;97960.84;;;10.67;100.00
41886;BME280;27567;43.084;25.616;2023-05-23T00:03:40;97961.00;;;10.79;100.00
41886;BME280;27567;43.084;25.616;2023-05-23T00:06:24;97965.63;;;10.52;100.00
41886;BME280;27567;43.084;25.616;2023-05-23T00:09:09;97959.25;;;10.40;100.00
41886;BME280;27567;43.084;25.616;2023-05-23T00:11:54;97965.03;;;10.43;100.00
41886;BME280;27567;43.084;25.616;2023-05-23T00:14:38;97955.34;;;10.42;100.00
41886;BME280;27567;43.084;25.616;2023-05-23T00:17:25;97952.44;;;10.44;100.00
41886;BME280;27567;43.084;25.616;2023-05-23T00:20:11;97951.41;;;10.38;100.00
41886;BME280;27567;43.084;25.616;2023-05-23T00:22:59;97952.19;;;10.59;100.00
41886;BME280;27567;43.084;25.616;2023-05-23T00:25:46;97962.94;;;10.59;100.00
41886;BME280;27567;43.084;25.616;2023-05-23T00:28:41;97946.22;;;10.57;100.00
41886;BME280;27567;43.084;25.616;2023-05-23T00:31:25;97952.22;;;10.52;100.00
41886;BME280;27567;43.084;25.616;2023-05-23T00:34:10;97946.25;;;10.36;100.00
41886;BME280;27567;43.084;25.616;2023-05-23T00:36:54;97954.06;;;10.51;100.00
41886;BME280;27567;43.084;25.616;2023-05-23T00:39:38;97944.81;;;10.34;100.00
41886;BME280;27567;43.084;25.616;2023-05-23T00:42:23;97940.09;;;10.16;100.00
41886;BME280;27567;43.084;25.616;2023-05-23T00:45:08;97943.81;;;10.15;100.00
41886;BME280;27567;43.084;25.616;2023-05-23T00:47:55;97954.31;;;10.43;100.00
41886;BME280;27567;43.084;25.616;2023-05-23T00:50:42;97940.28;;;10.48;100.00
41886;BME280;27567;43.084;25.616;2023-05-23T00:53:29;97944.19;;;10.52;100.00
41886;BME280;27567;43.084;25.616;2023-05-23T00:56:14;97944.78;;;10.61;100.00
41886;BME280;27567;43.084;25.616;2023-05-23T00:58:59;97951.56;;;10.63;100.00
41886;BME280;27567;43.084;25.616;2023-05-23T01:01:43;97961.94;;;10.46;100.00
41886;BME280;27567;43.084;25.616;2023-05-23T01:04:31;97960.47;;;10.57;100.00
41886;BME280;27567;43.084;25.616;2023-05-23T01:07:16;97958.41;;;10.52;100.00
41886;BME280;27567;43.084;25.616;2023-05-23T01:10:00;97962.94;;;10.52;100.00
41886;BME280;27567;43.084;25.616;2023-05-23T01:16:01;97960.06;;;10.47;100.00
41886;BME280;27567;43.084;25.616;2023-05-23T01:18:55;97965.22;;;10.42;100.00
41886;BME280;27567;43.084;25.616;2023-05-23T01:21:43;97972.25;;;10.29;100.00
41886;BME280;27567;43.084;25.616;2023-05-23T01:27:56;97969.97;;;10.33;100.00
41886;BME280;27567;43.084;25.616;2023-05-23T01:30:44;97969.78;;;10.21;100.00
41886;BME280;27567;43.084;25.616;2023-05-23T01:33:31;97967.94;;;10.21;100.00
41886;BME280;27567;43.084;25.616;2023-05-23T01:36:20;97967.50;;;10.31;100.00
41886;BME280;27567;43.084;25.616;2023-05-23T01:39:05;97958.03;;;10.22;100.00
41886;BME280;27567;43.084;25.616;2023-05-23T01:41:50;97954.34;;;10.10;100.00
41886;BME280;27567;43.084;25.616;2023-05-23T01:44:37;97966.09;;;10.08;100.00
41886;BME280;27567;43.084;25.616;2023-05-23T01:47:21;97960.13;;;9.80;100.00
41886;BME280;27567;43.084;25.616;2023-05-23T01:50:07;97954.78;;;9.73;100.00
41886;BME280;27567;43.084;25.616;2023-05-23T01:52:53;97954.97;;;9.71;100.00
41886;BME280;27567;43.084;25.616;2023-05-23T01:55:40;97957.44;;;9.66;100.00
41886;BME280;27567;43.084;25.616;2023-05-23T01:58:24;97964.03;;;9.90;100.00
41886;BME280;27567;43.084;25.616;2023-05-23T02:01:08;97964.44;;;10.07;100.00
41886;BME280;27567;43.084;25.616;2023-05-23T02:03:53;97967.50;;;10.18;100.00
41886;BME280;27567;43.084;25.616;2023-05-23T02:06:37;97970.00;;;10.19;100.00
41886;BME280;27567;43.084;25.616;2023-05-23T02:09:21;97968.34;;;10.25;100.00
41886;BME280;27567;43.084;25.616;2023-05-23T02:12:06;97971.44;;;10.22;100.00
41886;BME280;27567;43.084;25.616;2023-05-23T02:14:50;97976.16;;;10.27;100.00
41886;BME280;27567;43.084;25.616;2023-05-23T02:17:34;97970.41;;;10.10;100.00
41886;BME280;27567;43.084;25.616;2023-05-23T02:20:21;97967.72;;;10.16;100.00
41886;BME280;27567;43.084;25.616;2023-05-23T02:23:06;97965.03;;;10.03;100.00
41886;BME280;27567;43.084;25.616;2023-05-23T02:25:50;97960.31;;;9.78;100.00
41886;BME280;27567;43.084;25.616;2023-05-23T02:28:38;97971.25;;;9.83;100.00
41886;BME280;27567;43.084;25.616;2023-05-23T02:31:25;97964.44;;;9.94;100.00
41886;BME280;27567;43.084;25.616;2023-05-23T02:34:11;97966.72;;;9.84;100.00
41886;BME280;27567;43.084;25.616;2023-05-23T02:36:55;97966.28;;;10.07;100.00
41886;BME280;27567;43.084;25.616;2023-05-23T02:39:40;97969.16;;;10.12;100.00
41886;BME280;27567;43.084;25.616;2023-05-23T02:42:24;97976.59;;;10.03;100.00
41886;BME280;27567;43.084;25.616;2023-05-23T02:45:08;97970.81;;;9.93;100.00
41886;BME280;27567;43.084;25.616;2023-05-23T02:47:52;97971.66;;;10.00;100.00
41886;BME280;27567;43.084;25.616;2023-05-23T02:50:36;97972.66;;;10.06;100.00
41886;BME280;27567;43.084;25.616;2023-05-23T02:53:20;97978.66;;;10.08;100.00
41886;BME280;27567;43.084;25.616;2023-05-23T02:56:05;97972.47;;;10.14;100.00
41886;BME280;27567;43.084;25.616;2023-05-23T02:58:51;97980.88;;;10.25;100.00
41886;BME280;27567;43.084;25.616;2023-05-23T03:01:36;97978.63;;;10.28;100.00
41886;BME280;27567;43.084;25.616;2023-05-23T03:04:20;97978.22;;;10.25;100.00
41886;BME280;27567;43.084;25.616;2023-05-23T03:07:04;97976.38;;;10.18;100.00
41886;BME280;27567;43.084;25.616;2023-05-23T03:09:49;97974.94;;;10.16;100.00
41886;BME280;27567;43.084;25.616;2023-05-23T03:12:33;97976.38;;;10.05;100.00
41886;BME280;27567;43.084;25.616;2023-05-23T03:15:18;97975.16;;;10.07;100.00
41886;BME280;27567;43.084;25.616;2023-05-23T03:18:02;97978.81;;;10.27;100.00
41886;BME280;27567;43.084;25.616;2023-05-23T03:20:47;97973.50;;;10.40;100.00
41886;BME280;27567;43.084;25.616;2023-05-23T03:23:31;97977.19;;;10.46;100.00
41886;BME280;27567;43.084;25.616;2023-05-23T03:26:15;97982.34;;;10.54;100.00
41886;BME280;27567;43.084;25.616;2023-05-23T03:29:02;97977.34;;;10.58;100.00
41886;BME280;27567;43.084;25.616;2023-05-23T03:31:49;97979.41;;;10.62;100.00
41886;BME280;27567;43.084;25.616;2023-05-23T03:34:34;97976.75;;;10.56;100.00
41886;BME280;27567;43.084;25.616;2023-05-23T03:37:19;97985.81;;;10.55;100.00
41886;BME280;27567;43.084;25.616;2023-05-23T03:40:04;97992.00;;;10.62;100.00
41886;BME280;27567;43.084;25.616;2023-05-23T03:43:01;97979.88;;;10.46;100.00
41886;BME280;27567;43.084;25.616;2023-05-23T03:45:46;97998.81;;;10.37;100.00
41886;BME280;27567;43.084;25.616;2023-05-23T03:48:31;97993.28;;;10.32;100.00
41886;BME280;27567;43.084;25.616;2023-05-23T03:51:15;97996.16;;;10.44;100.00
41886;BME280;27567;43.084;25.616;2023-05-23T03:53:59;97999.22;;;10.55;100.00
41886;BME280;27567;43.084;25.616;2023-05-23T03:56:43;97997.13;;;10.63;100.00
41886;BME280;27567;43.084;25.616;2023-05-23T03:59:27;97994.63;;;10.75;100.00
41886;BME280;27567;43.084;25.616;2023-05-23T04:02:17;97998.13;;;10.82;100.00
41886;BME280;27567;43.084;25.616;2023-05-23T04:05:01;97992.75;;;10.82;100.00
41886;BME280;27567;43.084;25.616;2023-05-23T04:07:45;97994.75;;;11.01;100.00
41886;BME280;27567;43.084;25.616;2023-05-23T04:10:30;97992.06;;;11.01;100.00
41886;BME280;27567;43.084;25.616;2023-05-23T04:13:14;98004.69;;;10.93;100.00
41886;BME280;27567;43.084;25.616;2023-05-23T04:16:01;98007.59;;;10.92;100.00
41886;BME280;27567;43.084;25.616;2023-05-23T04:18:48;98007.09;;;11.08;100.00
41886;BME280;27567;43.084;25.616;2023-05-23T04:21:33;98002.66;;;10.89;100.00
41886;BME280;27567;43.084;25.616;2023-05-23T04:24:17;98012.84;;;11.12;100.00
41886;BME280;27567;43.084;25.616;2023-05-23T04:27:01;98013.06;;;11.10;100.00
41886;BME280;27567;43.084;25.616;2023-05-23T04:29:45;98012.53;;;11.40;100.00
41886;BME280;27567;43.084;25.616;2023-05-23T04:32:29;98018.66;;;11.48;100.00
41886;BME280;27567;43.084;25.616;2023-05-23T04:35:13;98014.47;;;11.58;100.00
41886;BME280;27567;43.084;25.616;2023-05-23T04:37:58;98020.75;;;11.78;100.00
41886;BME280;27567;43.084;25.616;2023-05-23T04:40:42;98028.75;;;11.91;100.00
41886;BME280;27567;43.084;25.616;2023-05-23T04:43:26;98018.19;;;11.90;100.00
41886;BME280;27567;43.084;25.616;2023-05-23T04:46:11;98024.88;;;12.12;100.00
41886;BME280;27567;43.084;25.616;2023-05-23T04:48:57;98023.75;;;11.95;100.00
41886;BME280;27567;43.084;25.616;2023-05-23T04:51:43;98033.66;;;12.26;100.00
41886;BME280;27567;43.084;25.616;2023-05-23T04:54:27;98023.88;;;12.32;100.00
41886;BME280;27567;43.084;25.616;2023-05-23T04:57:11;98029.22;;;12.57;100.00
41886;BME280;27567;43.084;25.616;2023-05-23T04:59:55;98014.50;;;12.78;100.00
41886;BME280;27567;43.084;25.616;2023-05-23T05:02:40;98010.88;;;13.10;100.00
41886;BME280;27567;43.084;25.616;2023-05-23T05:05:24;98002.88;;;13.52;100.00
41886;BME280;27567;43.084;25.616;2023-05-23T05:08:11;98013.34;;;13.73;100.00
41886;BME280;27567;43.084;25.616;2023-05-23T05:10:57;98007.56;;;14.11;100.00
41886;BME280;27567;43.084;25.616;2023-05-23T05:13:44;98005.72;;;14.24;100.00
41886;BME280;27567;43.084;25.616;2023-05-23T05:16:28;98012.28;;;14.28;100.00
41886;BME280;27567;43.084;25.616;2023-05-23T05:19:12;98009.22;;;14.36;100.00
41886;BME280;27567;43.084;25.616;2023-05-23T05:21:55;98015.09;;;14.57;100.00
41886;BME280;27567;43.084;25.616;2023-05-23T05:24:40;98013.94;;;14.65;100.00
41886;BME280;27567;43.084;25.616;2023-05-23T05:27:24;98013.09;;;14.88;100.00
41886;BME280;27567;43.084;25.616;2023-05-23T05:30:09;98003.78;;;15.08;100.00
41886;BME280;27567;43.084;25.616;2023-05-23T05:32:54;98013.94;;;15.17;100.00
41886;BME280;27567;43.084;25.616;2023-05-23T05:35:40;98015.25;;;15.15;100.00
41886;BME280;27567;43.084;25.616;2023-05-23T05:38:24;98014.22;;;15.45;100.00
41886;BME280;27567;43.084;25.616;2023-05-23T05:41:08;98023.13;;;15.45;100.00
41886;BME280;27567;43.084;25.616;2023-05-23T05:43:52;98021.13;;;15.53;100.00
41886;BME280;27567;43.084;25.616;2023-05-23T05:46:36;98022.53;;;15.72;100.00
41886;BME280;27567;43.084;25.616;2023-05-23T05:49:20;98020.72;;;16.07;100.00
41886;BME280;27567;43.084;25.616;2023-05-23T05:52:06;98016.25;;;15.67;100.00
41886;BME280;27567;43.084;25.616;2023-05-23T05:54:50;98019.63;;;15.74;100.00
41886;BME280;27567;43.084;25.616;2023-05-23T05:57:34;98016.41;;;15.89;100.00
41886;BME280;27567;43.084;25.616;2023-05-23T06:00:21;98014.75;;;16.22;100.00
41886;BME280;27567;43.084;25.616;2023-05-23T06:03:05;98024.63;;;16.67;100.00
41886;BME280;27567;43.084;25.616;2023-05-23T06:05:50;98017.38;;;16.17;100.00
41886;BME280;27567;43.084;25.616;2023-05-23T06:08:37;98015.88;;;15.92;100.00
41886;BME280;27567;43.084;25.616;2023-05-23T06:11:21;98021.31;;;16.43;100.00
41886;BME280;27567;43.084;25.616;2023-05-23T06:14:06;98028.44;;;17.06;100.00
41886;BME280;27567;43.084;25.616;2023-05-23T06:16:50;98029.13;;;16.79;100.00
41886;BME280;27567;43.084;25.616;2023-05-23T06:19:34;98025.19;;;16.70;100.00
41886;BME280;27567;43.084;25.616;2023-05-23T06:22:20;98023.91;;;16.94;100.00
41886;BME280;27567;43.084;25.616;2023-05-23T06:25:05;98014.63;;;16.68;100.00
41886;BME280;27567;43.084;25.616;2023-05-23T06:27:50;98029.34;;;16.38;100.00
41886;BME280;27567;43.084;25.616;2023-05-23T06:30:34;98034.19;;;16.75;100.00
41886;BME280;27567;43.084;25.616;2023-05-23T06:33:20;98029.13;;;16.79;100.00
41886;BME280;27567;43.084;25.616;2023-05-23T06:36:05;98023.59;;;16.91;100.00
41886;BME280;27567;43.084;25.616;2023-05-23T06:38:49;98030.75;;;16.97;100.00
41886;BME280;27567;43.084;25.616;2023-05-23T06:41:33;98033.31;;;17.31;100.00
41886;BME280;27567;43.084;25.616;2023-05-23T06:44:18;98017.72;;;17.66;100.00
41886;BME280;27567;43.084;25.616;2023-05-23T06:47:02;98027.94;;;18.13;100.00
41886;BME280;27567;43.084;25.616;2023-05-23T06:49:46;98017.41;;;18.17;100.00
41886;BME280;27567;43.084;25.616;2023-05-23T06:52:30;98015.63;;;17.73;100.00
41886;BME280;27567;43.084;25.616;2023-05-23T06:55:14;98017.31;;;18.44;100.00
41886;BME280;27567;43.084;25.616;2023-05-23T06:58:02;98023.81;;;18.91;100.00
41886;BME280;27567;43.084;25.616;2023-05-23T07:00:49;98021.28;;;18.31;100.00
41886;BME280;27567;43.084;25.616;2023-05-23T07:03:34;98021.38;;;18.90;100.00
41886;BME280;27567;43.084;25.616;2023-05-23T07:06:18;98029.34;;;18.59;100.00
41886;BME280;27567;43.084;25.616;2023-05-23T07:09:02;98023.34;;;18.57;100.00
41886;BME280;27567;43.084;25.616;2023-05-23T07:11:47;98019.13;;;19.30;100.00
41886;BME280;27567;43.084;25.616;2023-05-23T07:14:31;98016.19;;;18.40;100.00
41886;BME280;27567;43.084;25.616;2023-05-23T07:17:15;98006.91;;;18.31;100.00
41886;BME280;27567;43.084;25.616;2023-05-23T07:20:00;98006.59;;;19.13;100.00
41886;BME280;27567;43.084;25.616;2023-05-23T07:22:44;98006.59;;;19.13;100.00
41886;BME280;27567;43.084;25.616;2023-05-23T07:25:28;98006.88;;;19.27;100.00
41886;BME280;27567;43.084;25.616;2023-05-23T07:28:12;98005.16;;;20.26;100.00
41886;BME280;27567;43.084;25.616;2023-05-23T07:30:56;98016.75;;;19.44;100.00
41886;BME280;27567;43.084;25.616;2023-05-23T07:33:41;98018.75;;;19.00;100.00
41886;BME280;27567;43.084;25.616;2023-05-23T07:36:25;98013.84;;;19.02;100.00
41886;BME280;27567;43.084;25.616;2023-05-23T07:39:10;98016.53;;;19.76;100.00
41886;BME280;27567;43.084;25.616;2023-05-23T07:41:54;98014.28;;;19.37;100.00
41886;BME280;27567;43.084;25.616;2023-05-23T07:44:40;98011.31;;;18.90;100.00
41886;BME280;27567;43.084;25.616;2023-05-23T07:47:24;98011.13;;;19.02;100.00
41886;BME280;27567;43.084;25.616;2023-05-23T07:50:08;98018.13;;;19.57;100.00
41886;BME280;27567;43.084;25.616;2023-05-23T07:52:53;98014.69;;;19.97;100.00
41886;BME280;27567;43.084;25.616;2023-05-23T07:55:38;98015.75;;;20.27;100.00
41886;BME280;27567;43.084;25.616;2023-05-23T07:58:22;98013.03;;;20.38;100.00
41886;BME280;27567;43.084;25.616;2023-05-23T08:01:06;98008.69;;;20.11;100.00
41886;BME280;27567;43.084;25.616;2023-05-23T08:03:50;98005.94;;;19.85;100.00
41886;BME280;27567;43.084;25.616;2023-05-23T08:06:34;98010.44;;;19.28;100.00
41886;BME280;27567;43.084;25.616;2023-05-23T08:09:18;97999.03;;;19.31;100.00
41886;BME280;27567;43.084;25.616;2023-05-23T08:12:02;98003.41;;;19.37;100.00
41886;BME280;27567;43.084;25.616;2023-05-23T08:14:47;97999.91;;;19.47;100.00
41886;BME280;27567;43.084;25.616;2023-05-23T08:17:31;98005.97;;;20.16;100.00
41886;BME280;27567;43.084;25.616;2023-05-23T08:20:14;98005.16;;;20.26;100.00
41886;BME280;27567;43.084;25.616;2023-05-23T08:22:59;97998.88;;;20.31;100.00
41886;BME280;27567;43.084;25.616;2023-05-23T08:25:44;98002.16;;;20.33;100.00
41886;BME280;27567;43.084;25.616;2023-05-23T08:28:28;98006.47;;;20.49;100.00
41886;BME280;27567;43.084;25.616;2023-05-23T08:31:12;98005.06;;;20.88;100.00
41886;BME280;27567;43.084;25.616;2023-05-23T08:33:57;97994.84;;;20.07;100.00
41886;BME280;27567;43.084;25.616;2023-05-23T08:36:42;97995.09;;;20.37;100.00
41886;BME280;27567;43.084;25.616;2023-05-23T08:39:26;98002.63;;;20.86;100.00
41886;BME280;27567;43.084;25.616;2023-05-23T08:42:10;98004.25;;;20.93;100.00
41886;BME280;27567;43.084;25.616;2023-05-23T08:44:54;97996.38;;;20.65;100.00
41886;BME280;27567;43.084;25.616;2023-05-23T08:47:41;97992.88;;;20.54;100.00
41886;BME280;27567;43.084;25.616;2023-05-23T08:50:29;98002.06;;;20.74;100.00
41886;BME280;27567;43.084;25.616;2023-05-23T08:53:16;97997.91;;;21.08;100.00
41886;BME280;27567;43.084;25.616;2023-05-23T08:56:03;98000.03;;;21.26;100.00
41886;BME280;27567;43.084;25.616;2023-05-23T08:58:48;97997.09;;;21.12;100.00
41886;BME280;27567;43.084;25.616;2023-05-23T09:01:34;97992.41;;;21.23;100.00
41886;BME280;27567;43.084;25.616;2023-05-23T09:04:21;97986.28;;;20.81;100.00
41886;BME280;27567;43.084;25.616;2023-05-23T09:07:06;98003.16;;;20.73;100.00
41886;BME280;27567;43.084;25.616;2023-05-23T09:09:50;97997.47;;;20.69;100.00
41886;BME280;27567;43.084;25.616;2023-05-23T09:12:35;98002.09;;;20.79;100.00
41886;BME280;27567;43.084;25.616;2023-05-23T09:15:20;98005.81;;;21.14;100.00
41886;BME280;27567;43.084;25.616;2023-05-23T09:18:06;97996.19;;;21.27;100.00
41886;BME280;27567;43.084;25.616;2023-05-23T09:20:50;97990.66;;;20.77;100.00
41886;BME280;27567;43.084;25.616;2023-05-23T09:23:36;98000.88;;;21.16;100.00
41886;BME280;27567;43.084;25.616;2023-05-23T09:26:22;97987.81;;;21.19;100.00
41886;BME280;27567;43.084;25.616;2023-05-23T09:29:06;97989.59;;;21.33;100.00
41886;BME280;27567;43.084;25.616;2023-05-23T09:31:51;97978.69;;;21.39;100.00
41886;BME280;27567;43.084;25.616;2023-05-23T09:34:35;97988.44;;;21.50;100.00
41886;BME280;27567;43.084;25.616;2023-05-23T09:37:19;97985.13;;;21.03;100.00
41886;BME280;27567;43.084;25.616;2023-05-23T09:40:08;98005.19;;;21.28;100.00
41886;BME280;27567;43.084;25.616;2023-05-23T09:42:53;97986.72;;;21.65;100.00
41886;BME280;27567;43.084;25.616;2023-05-23T09:45:37;97990.72;;;22.17;100.00
41886;BME280;27567;43.084;25.616;2023-05-23T09:48:28;97999.31;;;22.30;100.00
41886;BME280;27567;43.084;25.616;2023-05-23T09:51:17;97993.63;;;22.85;100.00
41886;BME280;27567;43.084;25.616;2023-05-23T09:54:02;97984.25;;;22.03;100.00
41886;BME280;27567;43.084;25.616;2023-05-23T09:56:46;97993.69;;;20.55;100.00
41886;BME280;27567;43.084;25.616;2023-05-23T09:59:31;97979.75;;;20.82;100.00
41886;BME280;27567;43.084;25.616;2023-05-23T10:05:37;97969.56;;;21.64;100.00
41886;BME280;27567;43.084;25.616;2023-05-23T10:08:38;97979.41;;;22.29;100.00
41886;BME280;27567;43.084;25.616;2023-05-23T10:14:16;97977.91;;;22.42;100.00
41886;BME280;27567;43.084;25.616;2023-05-23T10:17:16;97971.34;;;24.31;100.00
41886;BME280;27567;43.084;25.616;2023-05-23T10:20:09;97977.63;;;25.57;100.00
41886;BME280;27567;43.084;25.616;2023-05-23T10:22:55;97965.84;;;26.97;100.00
41886;BME280;27567;43.084;25.616;2023-05-23T10:25:39;97963.63;;;25.31;100.00
41886;BME280;27567;43.084;25.616;2023-05-23T10:28:25;97955.13;;;26.78;100.00
41886;BME280;27567;43.084;25.616;2023-05-23T10:31:11;97964.94;;;27.19;100.00
41886;BME280;27567;43.084;25.616;2023-05-23T10:34:03;97960.41;;;25.65;100.00
41886;BME280;27567;43.084;25.616;2023-05-23T10:37:03;97953.16;;;27.27;100.00
41886;BME280;27567;43.084;25.616;2023-05-23T10:39:56;97953.84;;;28.99;90.96
41886;BME280;27567;43.084;25.616;2023-05-23T10:42:57;97953.97;;;29.32;83.18
41886;BME280;27567;43.084;25.616;2023-05-23T10:45:44;97951.38;;;27.93;96.29
41886;BME280;27567;43.084;25.616;2023-05-23T10:48:41;97952.94;;;26.97;100.00
41886;BME280;27567;43.084;25.616;2023-05-23T10:51:37;97957.56;;;24.64;100.00
41886;BME280;27567;43.084;25.616;2023-05-23T10:54:21;97953.47;;;25.31;100.00
41886;BME280;27567;43.084;25.616;2023-05-23T10:57:05;97939.53;;;23.83;100.00
41886;BME280;27567;43.084;25.616;2023-05-23T10:59:50;97952.03;;;23.51;100.00
41886;BME280;27567;43.084;25.616;2023-05-23T11:02:34;97954.53;;;22.85;100.00
41886;BME280;27567;43.084;25.616;2023-05-23T11:05:21;97951.69;;;22.95;100.00
41886;BME280;27567;43.084;25.616;2023-05-23T11:08:13;97964.16;;;23.01;100.00
41886;BME280;27567;43.084;25.616;2023-05-23T11:11:03;97943.69;;;23.42;100.00
41886;BME280;27567;43.084;25.616;2023-05-23T11:13:56;97947.22;;;23.81;100.00
41886;BME280;27567;43.084;25.616;2023-05-23T11:16:45;97952.94;;;23.65;100.00
41886;BME280;27567;43.084;25.616;2023-05-23T11:19:31;97950.09;;;23.90;100.00
41886;BME280;27567;43.084;25.616;2023-05-23T11:22:16;97952.38;;;25.04;100.00
41886;BME280;27567;43.084;25.616;2023-05-23T11:25:05;97939.03;;;26.62;100.00
41886;BME280;27567;43.084;25.616;2023-05-23T11:27:49;97943.44;;;28.27;100.00
41886;BME280;27567;43.084;25.616;2023-05-23T11:30:34;97949.47;;;27.94;100.00
41886;BME280;27567;43.084;25.616;2023-05-23T11:33:22;97945.59;;;27.68;100.00
41886;BME280;27567;43.084;25.616;2023-05-23T11:36:06;97937.91;;;27.04;100.00
41886;BME280;27567;43.084;25.616;2023-05-23T11:38:51;97950.34;;;25.75;100.00
41886;BME280;27567;43.084;25.616;2023-05-23T11:41:35;97953.81;;;24.60;100.00
41886;BME280;27567;43.084;25.616;2023-05-23T11:44:19;97950.38;;;23.11;100.00
41886;BME280;27567;43.084;25.616;2023-05-23T11:47:05;97956.47;;;21.66;100.00
41886;BME280;27567;43.084;25.616;2023-05-23T11:49:49;97965.44;;;20.25;100.00
41886;BME280;27567;43.084;25.616;2023-05-23T11:52:33;97962.56;;;18.53;100.00
41886;BME280;27567;43.084;25.616;2023-05-23T11:55:22;97954.47;;;18.20;100.00
41886;BME280;27567;43.084;25.616;2023-05-23T11:58:06;97944.38;;;18.58;100.00
41886;BME280;27567;43.084;25.616;2023-05-23T12:00:51;97938.44;;;18.67;100.00
41886;BME280;27567;43.084;25.616;2023-05-23T12:03:46;97939.56;;;18.76;100.00
41886;BME280;27567;43.084;25.616;2023-05-23T12:06:30;97942.44;;;19.02;100.00
41886;BME280;27567;43.084;25.616;2023-05-23T12:09:16;97926.75;;;19.40;100.00
41886;BME280;27567;43.084;25.616;2023-05-23T12:12:00;97933.84;;;20.34;100.00
41886;BME280;27567;43.084;25.616;2023-05-23T12:14:45;97932.16;;;21.20;100.00
41886;BME280;27567;43.084;25.616;2023-05-23T12:17:30;97927.56;;;21.60;100.00
41886;BME280;27567;43.084;25.616;2023-05-23T12:20:15;97926.81;;;22.48;100.00
41886;BME280;27567;43.084;25.616;2023-05-23T12:23:03;97922.06;;;23.46;100.00
41886;BME280;27567;43.084;25.616;2023-05-23T12:25:54;97910.56;;;24.15;100.00
41886;BME280;27567;43.084;25.616;2023-05-23T12:28:40;97906.44;;;29.69;100.00
41886;BME280;27567;43.084;25.616;2023-05-23T12:31:28;97896.31;;;32.00;83.66
41886;BME280;27567;43.084;25.616;2023-05-23T12:34:12;97900.16;;;33.08;76.12
41886;BME280;27567;43.084;25.616;2023-05-23T12:36:58;97904.50;;;28.76;100.00
41886;BME280;27567;43.084;25.616;2023-05-23T12:39:42;97901.69;;;26.21;100.00
41886;BME280;27567;43.084;25.616;2023-05-23T12:42:27;97910.16;;;25.42;100.00
41886;BME280;27567;43.084;25.616;2023-05-23T12:45:13;97904.16;;;26.71;100.00
41886;BME280;27567;43.084;25.616;2023-05-23T12:47:58;97907.22;;;25.75;100.00
41886;BME280;27567;43.084;25.616;2023-05-23T12:50:43;97916.94;;;25.22;100.00
41886;BME280;27567;43.084;25.616;2023-05-23T12:53:27;97903.47;;;24.56;100.00
41886;BME280;27567;43.084;25.616;2023-05-23T12:56:10;97897.59;;;28.04;100.00
41886;BME280;27567;43.084;25.616;2023-05-23T12:58:55;97884.47;;;32.64;76.89
41886;BME280;27567;43.084;25.616;2023-05-23T13:01:39;97889.44;;;34.28;61.27
41886;BME280;27567;43.084;25.616;2023-05-23T13:04:23;97872.53;;;35.17;58.05
41886;BME280;27567;43.084;25.616;2023-05-23T13:07:07;97865.88;;;35.94;53.64
41886;BME280;27567;43.084;25.616;2023-05-23T13:09:51;97873.00;;;34.66;56.33
41886;BME280;27567;43.084;25.616;2023-05-23T13:12:35;97880.28;;;31.77;74.80
41886;BME280;27567;43.084;25.616;2023-05-23T13:15:20;97892.44;;;29.32;94.24
41886;BME280;27567;43.084;25.616;2023-05-23T13:18:04;97884.50;;;27.84;100.00
41886;BME280;27567;43.084;25.616;2023-05-23T13:20:49;97881.72;;;26.38;100.00
41886;BME280;27567;43.084;25.616;2023-05-23T13:23:33;97878.94;;;26.29;100.00
41886;BME280;27567;43.084;25.616;2023-05-23T13:26:18;97887.72;;;26.98;100.00
41886;BME280;27567;43.084;25.616;2023-05-23T13:29:03;97885.19;;;25.89;100.00
41886;BME280;27567;43.084;25.616;2023-05-23T13:31:47;97892.72;;;24.59;100.00
41886;BME280;27567;43.084;25.616;2023-05-23T13:34:31;97875.88;;;25.76;100.00
41886;BME280;27567;43.084;25.616;2023-05-23T13:37:18;97879.84;;;25.93;100.00
41886;BME280;27567;43.084;25.616;2023-05-23T13:40:03;97871.09;;;27.65;100.00
41886;BME280;27567;43.084;25.616;2023-05-23T13:42:48;97876.38;;;31.38;100.00
41886;BME280;27567;43.084;25.616;2023-05-23T13:45:36;97879.09;;;32.55;95.31
41886;BME280;27567;43.084;25.616;2023-05-23T13:48:20;97869.66;;;33.47;75.95
41886;BME280;27567;43.084;25.616;2023-05-23T13:51:05;97884.88;;;29.62;100.00
41886;BME280;27567;43.084;25.616;2023-05-23T13:53:49;97889.97;;;28.88;100.00
41886;BME280;27567;43.084;25.616;2023-05-23T13:56:33;97885.75;;;29.75;100.00
41886;BME280;27567;43.084;25.616;2023-05-23T13:59:17;97881.91;;;31.66;93.17
41886;BME280;27567;43.084;25.616;2023-05-23T14:02:05;97884.09;;;33.96;69.87
41886;BME280;27567;43.084;25.616;2023-05-23T14:04:50;97884.13;;;33.56;72.01
41886;BME280;27567;43.084;25.616;2023-05-23T14:07:35;97883.72;;;33.97;72.20
41886;BME280;27567;43.084;25.616;2023-05-23T14:10:20;97888.81;;;31.44;92.95
41886;BME280;27567;43.084;25.616;2023-05-23T14:13:05;97888.81;;;29.19;100.00
41886;BME280;27567;43.084;25.616;2023-05-23T14:15:50;97887.47;;;27.43;100.00
41886;BME280;27567;43.084;25.616;2023-05-23T14:18:34;97881.81;;;25.92;100.00
41886;BME280;27567;43.084;25.616;2023-05-23T14:21:20;97885.06;;;25.49;100.00
41886;BME280;27567;43.084;25.616;2023-05-23T14:24:04;97876.69;;;23.92;100.00
41886;BME280;27567;43.084;25.616;2023-05-23T14:26:49;97883.59;;;23.18;100.00